sensor_id;sensor_type;location;lat;lon;timestamp;temperature;humidity
12688;DHT22;6408;59.388;17.798;2022-12-05T00:01:59;-1.50;99.90
12688;DHT22;6408;59.388;17.798;2022-12-05T00:04:28;-1.50;99.90
12688;DHT22;6408;59.388;17.798;2022-12-05T00:07:02;-1.50;99.90
12688;DHT22;6408;59.388;17.798;2022-12-05T00:09:32;-1.50;99.90
12688;DHT22;6408;59.388;17.798;2022-12-05T00:12:02;-1.40;99.90
12688;DHT22;6408;59.388;17.798;2022-12-05T00:14:34;-1.40;99.90
12688;DHT22;6408;59.388;17.798;2022-12-05T00:17:07;-1.50;99.90
12688;DHT22;6408;59.388;17.798;2022-12-05T00:19:38;-1.30;99.90
12688;DHT22;6408;59.388;17.798;2022-12-05T00:22:08;-1.40;99.90
12688;DHT22;6408;59.388;17.798;2022-12-05T00:24:36;-1.40;99.90
12688;DHT22;6408;59.388;17.798;2022-12-05T00:27:03;-1.40;99.90
12688;DHT22;6408;59.388;17.798;2022-12-05T00:29:31;-1.40;99.90
12688;DHT22;6408;59.388;17.798;2022-12-05T00:31:58;-1.50;99.90
12688;DHT22;6408;59.388;17.798;2022-12-05T00:34:31;-1.50;99.90
12688;DHT22;6408;59.388;17.798;2022-12-05T00:37:00;-1.40;99.90
12688;DHT22;6408;59.388;17.798;2022-12-05T00:39:50;-1.50;99.90
12688;DHT22;6408;59.388;17.798;2022-12-05T00:42:18;-1.40;99.90
12688;DHT22;6408;59.388;17.798;2022-12-05T00:44:48;-1.50;99.90
12688;DHT22;6408;59.388;17.798;2022-12-05T00:47:23;-1.50;99.90
12688;DHT22;6408;59.388;17.798;2022-12-05T00:49:56;-1.50;99.90
12688;DHT22;6408;59.388;17.798;2022-12-05T00:52:26;-1.50;99.90
12688;DHT22;6408;59.388;17.798;2022-12-05T00:54:55;-1.50;99.90
12688;DHT22;6408;59.388;17.798;2022-12-05T01:00:15;-1.50;99.90
12688;DHT22;6408;59.388;17.798;2022-12-05T01:02:53;-1.40;99.90
12688;DHT22;6408;59.388;17.798;2022-12-05T01:05:37;-1.60;99.90
12688;DHT22;6408;59.388;17.798;2022-12-05T01:08:15;-1.50;99.90
12688;DHT22;6408;59.388;17.798;2022-12-05T01:11:13;-1.60;99.90
12688;DHT22;6408;59.388;17.798;2022-12-05T01:13:45;-1.60;99.90
12688;DHT22;6408;59.388;17.798;2022-12-05T01:16:24;-1.70;99.90
12688;DHT22;6408;59.388;17.798;2022-12-05T01:18:57;-1.70;99.90
12688;DHT22;6408;59.388;17.798;2022-12-05T01:21:34;-1.70;99.90
12688;DHT22;6408;59.388;17.798;2022-12-05T01:24:01;-1.70;99.90
12688;DHT22;6408;59.388;17.798;2022-12-05T01:26:31;-1.70;99.90
12688;DHT22;6408;59.388;17.798;2022-12-05T01:28:59;-1.60;99.90
12688;DHT22;6408;59.388;17.798;2022-12-05T01:31:45;-1.60;99.90
12688;DHT22;6408;59.388;17.798;2022-12-05T01:34:15;-1.50;99.90
12688;DHT22;6408;59.388;17.798;2022-12-05T01:36:54;-1.50;99.90
12688;DHT22;6408;59.388;17.798;2022-12-05T01:39:21;-1.60;99.90
12688;DHT22;6408;59.388;17.798;2022-12-05T01:41:57;-1.60;99.90
12688;DHT22;6408;59.388;17.798;2022-12-05T01:45:05;-1.70;99.90
12688;DHT22;6408;59.388;17.798;2022-12-05T01:47:45;-1.70;99.90
12688;DHT22;6408;59.388;17.798;2022-12-05T01:50:18;-1.60;99.90
12688;DHT22;6408;59.388;17.798;2022-12-05T01:52:53;-1.70;99.90
12688;DHT22;6408;59.388;17.798;2022-12-05T01:55:21;-1.70;99.90
12688;DHT22;6408;59.388;17.798;2022-12-05T01:57:51;-1.60;99.90
12688;DHT22;6408;59.388;17.798;2022-12-05T02:00:19;-1.60;99.90
12688;DHT22;6408;59.388;17.798;2022-12-05T02:02:54;-1.60;99.90
12688;DHT22;6408;59.388;17.798;2022-12-05T02:05:41;-1.60;99.90
12688;DHT22;6408;59.388;17.798;2022-12-05T02:08:12;-1.50;99.90
12688;DHT22;6408;59.388;17.798;2022-12-05T02:10:43;-1.60;99.90
12688;DHT22;6408;59.388;17.798;2022-12-05T02:13:36;-1.50;99.90
12688;DHT22;6408;59.388;17.798;2022-12-05T02:16:17;-1.50;99.90
12688;DHT22;6408;59.388;17.798;2022-12-05T02:18:56;-1.50;99.90
12688;DHT22;6408;59.388;17.798;2022-12-05T02:21:58;-1.50;99.90
12688;DHT22;6408;59.388;17.798;2022-12-05T02:24:44;-1.50;99.90
12688;DHT22;6408;59.388;17.798;2022-12-05T02:27:40;-1.50;99.90
12688;DHT22;6408;59.388;17.798;2022-12-05T02:30:21;-1.40;99.90
12688;DHT22;6408;59.388;17.798;2022-12-05T02:33:00;-1.40;99.90
12688;DHT22;6408;59.388;17.798;2022-12-05T02:35:41;-1.40;99.90
12688;DHT22;6408;59.388;17.798;2022-12-05T02:38:26;-1.40;99.90
12688;DHT22;6408;59.388;17.798;2022-12-05T02:41:02;-1.30;99.90
12688;DHT22;6408;59.388;17.798;2022-12-05T02:43:42;-1.30;99.90
12688;DHT22;6408;59.388;17.798;2022-12-05T02:46:20;-1.40;99.90
12688;DHT22;6408;59.388;17.798;2022-12-05T02:48:56;-1.40;99.90
12688;DHT22;6408;59.388;17.798;2022-12-05T02:51:43;-1.40;99.90
12688;DHT22;6408;59.388;17.798;2022-12-05T02:54:14;-1.40;99.90
12688;DHT22;6408;59.388;17.798;2022-12-05T02:56:46;-1.20;99.90
12688;DHT22;6408;59.388;17.798;2022-12-05T02:59:15;-1.30;99.90
12688;DHT22;6408;59.388;17.798;2022-12-05T03:02:19;-1.40;99.90
12688;DHT22;6408;59.388;17.798;2022-12-05T03:04:50;-1.30;99.90
12688;DHT22;6408;59.388;17.798;2022-12-05T03:07:33;-1.30;99.90
12688;DHT22;6408;59.388;17.798;2022-12-05T03:10:10;-1.40;99.90
12688;DHT22;6408;59.388;17.798;2022-12-05T03:12:48;-1.40;99.90
12688;DHT22;6408;59.388;17.798;2022-12-05T03:15:22;-1.40;99.90
12688;DHT22;6408;59.388;17.798;2022-12-05T03:17:59;-1.40;99.90
12688;DHT22;6408;59.388;17.798;2022-12-05T03:20:38;-1.30;99.90
12688;DHT22;6408;59.388;17.798;2022-12-05T03:23:27;-1.40;99.90
12688;DHT22;6408;59.388;17.798;2022-12-05T03:26:29;-1.30;99.90
12688;DHT22;6408;59.388;17.798;2022-12-05T03:29:13;-1.30;99.90
12688;DHT22;6408;59.388;17.798;2022-12-05T03:31:54;-1.30;99.90
12688;DHT22;6408;59.388;17.798;2022-12-05T03:34:44;-1.30;99.90
12688;DHT22;6408;59.388;17.798;2022-12-05T03:37:38;-1.30;99.90
12688;DHT22;6408;59.388;17.798;2022-12-05T03:40:26;-1.30;99.90
12688;DHT22;6408;59.388;17.798;2022-12-05T03:42:59;-1.30;99.90
12688;DHT22;6408;59.388;17.798;2022-12-05T03:45:54;-1.30;99.90
12688;DHT22;6408;59.388;17.798;2022-12-05T03:48:36;-1.30;99.90
12688;DHT22;6408;59.388;17.798;2022-12-05T03:51:07;-1.30;99.90
12688;DHT22;6408;59.388;17.798;2022-12-05T03:53:43;-1.30;99.90
12688;DHT22;6408;59.388;17.798;2022-12-05T03:56:24;-1.30;99.90
12688;DHT22;6408;59.388;17.798;2022-12-05T03:59:06;-1.30;99.90
12688;DHT22;6408;59.388;17.798;2022-12-05T04:01:38;-1.40;99.90
12688;DHT22;6408;59.388;17.798;2022-12-05T04:04:15;-1.40;99.90
12688;DHT22;6408;59.388;17.798;2022-12-05T04:06:57;-1.30;99.90
12688;DHT22;6408;59.388;17.798;2022-12-05T04:09:33;-1.30;99.90
12688;DHT22;6408;59.388;17.798;2022-12-05T04:12:09;-1.20;99.90
12688;DHT22;6408;59.388;17.798;2022-12-05T04:14:41;-1.10;99.90
12688;DHT22;6408;59.388;17.798;2022-12-05T04:17:15;-1.10;99.90
12688;DHT22;6408;59.388;17.798;2022-12-05T04:19:47;-1.20;99.90
12688;DHT22;6408;59.388;17.798;2022-12-05T04:22:37;-1.30;99.90
12688;DHT22;6408;59.388;17.798;2022-12-05T04:25:33;-1.20;99.90
12688;DHT22;6408;59.388;17.798;2022-12-05T04:28:14;-1.20;99.90
12688;DHT22;6408;59.388;17.798;2022-12-05T04:31:02;-1.20;99.90
12688;DHT22;6408;59.388;17.798;2022-12-05T04:33:39;-1.30;99.90
12688;DHT22;6408;59.388;17.798;2022-12-05T04:36:24;-1.30;99.90
12688;DHT22;6408;59.388;17.798;2022-12-05T04:39:16;-1.30;99.90
12688;DHT22;6408;59.388;17.798;2022-12-05T04:41:52;-1.30;99.90
12688;DHT22;6408;59.388;17.798;2022-12-05T04:44:24;-1.20;99.90
12688;DHT22;6408;59.388;17.798;2022-12-05T04:47:02;-1.20;99.90
12688;DHT22;6408;59.388;17.798;2022-12-05T04:49:32;-1.20;99.90
12688;DHT22;6408;59.388;17.798;2022-12-05T04:52:07;-1.20;99.90
12688;DHT22;6408;59.388;17.798;2022-12-05T04:54:43;-1.30;99.90
12688;DHT22;6408;59.388;17.798;2022-12-05T04:57:17;-1.30;99.90
12688;DHT22;6408;59.388;17.798;2022-12-05T04:59:59;-1.30;99.90
12688;DHT22;6408;59.388;17.798;2022-12-05T05:02:32;-1.30;99.90
12688;DHT22;6408;59.388;17.798;2022-12-05T05:05:15;-1.30;99.90
12688;DHT22;6408;59.388;17.798;2022-12-05T05:07:51;-1.30;99.90
12688;DHT22;6408;59.388;17.798;2022-12-05T05:10:28;-1.20;99.90
12688;DHT22;6408;59.388;17.798;2022-12-05T05:13:08;-1.20;99.90
12688;DHT22;6408;59.388;17.798;2022-12-05T05:15:41;-1.30;99.90
12688;DHT22;6408;59.388;17.798;2022-12-05T05:18:12;-1.20;99.90
12688;DHT22;6408;59.388;17.798;2022-12-05T05:20:41;-1.20;99.90
12688;DHT22;6408;59.388;17.798;2022-12-05T05:23:13;-1.30;99.90
12688;DHT22;6408;59.388;17.798;2022-12-05T05:25:42;-1.20;99.90
12688;DHT22;6408;59.388;17.798;2022-12-05T05:28:10;-1.20;99.90
12688;DHT22;6408;59.388;17.798;2022-12-05T05:30:38;-1.30;99.90
12688;DHT22;6408;59.388;17.798;2022-12-05T05:33:07;-1.20;99.90
12688;DHT22;6408;59.388;17.798;2022-12-05T05:35:37;-1.30;99.90
12688;DHT22;6408;59.388;17.798;2022-12-05T05:38:20;-1.30;99.90
12688;DHT22;6408;59.388;17.798;2022-12-05T05:40:55;-1.20;99.90
12688;DHT22;6408;59.388;17.798;2022-12-05T05:43:22;-1.20;99.90
12688;DHT22;6408;59.388;17.798;2022-12-05T05:45:56;-1.30;99.90
12688;DHT22;6408;59.388;17.798;2022-12-05T05:48:24;-1.30;99.90
12688;DHT22;6408;59.388;17.798;2022-12-05T05:50:55;-1.20;99.90
12688;DHT22;6408;59.388;17.798;2022-12-05T05:53:41;-1.20;99.90
12688;DHT22;6408;59.388;17.798;2022-12-05T05:56:36;-1.20;99.90
12688;DHT22;6408;59.388;17.798;2022-12-05T05:59:10;-1.20;99.90
12688;DHT22;6408;59.388;17.798;2022-12-05T06:01:45;-1.10;99.90
12688;DHT22;6408;59.388;17.798;2022-12-05T06:04:13;-1.00;99.90
12688;DHT22;6408;59.388;17.798;2022-12-05T06:06:40;-1.10;99.90
12688;DHT22;6408;59.388;17.798;2022-12-05T06:09:11;-1.20;99.90
12688;DHT22;6408;59.388;17.798;2022-12-05T06:11:41;-1.20;99.90
12688;DHT22;6408;59.388;17.798;2022-12-05T06:14:09;-1.20;99.90
12688;DHT22;6408;59.388;17.798;2022-12-05T06:16:42;-1.20;99.90
12688;DHT22;6408;59.388;17.798;2022-12-05T06:19:21;-1.20;99.90
12688;DHT22;6408;59.388;17.798;2022-12-05T06:21:49;-1.20;99.90
12688;DHT22;6408;59.388;17.798;2022-12-05T06:24:20;-1.10;99.90
12688;DHT22;6408;59.388;17.798;2022-12-05T06:26:54;-1.10;99.90
12688;DHT22;6408;59.388;17.798;2022-12-05T06:29:42;-1.10;99.90
12688;DHT22;6408;59.388;17.798;2022-12-05T06:32:11;-1.00;99.90
12688;DHT22;6408;59.388;17.798;2022-12-05T06:34:41;-1.00;99.90
12688;DHT22;6408;59.388;17.798;2022-12-05T06:37:16;-0.90;99.90
12688;DHT22;6408;59.388;17.798;2022-12-05T06:39:43;-0.90;99.90
12688;DHT22;6408;59.388;17.798;2022-12-05T06:42:14;-1.00;99.90
12688;DHT22;6408;59.388;17.798;2022-12-05T06:44:57;-1.00;99.90
12688;DHT22;6408;59.388;17.798;2022-12-05T06:47:30;-1.00;99.90
12688;DHT22;6408;59.388;17.798;2022-12-05T06:50:18;-1.00;99.90
12688;DHT22;6408;59.388;17.798;2022-12-05T06:52:50;-1.10;99.90
12688;DHT22;6408;59.388;17.798;2022-12-05T06:55:24;-1.10;99.90
12688;DHT22;6408;59.388;17.798;2022-12-05T06:58:01;-1.00;99.90
12688;DHT22;6408;59.388;17.798;2022-12-05T07:00:36;-0.90;99.90
12688;DHT22;6408;59.388;17.798;2022-12-05T07:03:22;-0.90;99.90
12688;DHT22;6408;59.388;17.798;2022-12-05T07:05:52;-1.00;99.90
12688;DHT22;6408;59.388;17.798;2022-12-05T07:08:28;-1.00;99.90
12688;DHT22;6408;59.388;17.798;2022-12-05T07:10:58;-1.00;99.90
12688;DHT22;6408;59.388;17.798;2022-12-05T07:13:40;-1.10;99.90
12688;DHT22;6408;59.388;17.798;2022-12-05T07:16:14;-1.10;99.90
12688;DHT22;6408;59.388;17.798;2022-12-05T07:18:46;-1.10;99.90
12688;DHT22;6408;59.388;17.798;2022-12-05T07:21:19;-1.10;99.90
12688;DHT22;6408;59.388;17.798;2022-12-05T07:23:47;-0.80;99.90
12688;DHT22;6408;59.388;17.798;2022-12-05T07:26:22;-0.80;99.90
12688;DHT22;6408;59.388;17.798;2022-12-05T07:28:55;-0.90;99.90
12688;DHT22;6408;59.388;17.798;2022-12-05T07:31:26;-0.80;99.90
12688;DHT22;6408;59.388;17.798;2022-12-05T07:33:58;-0.80;99.90
12688;DHT22;6408;59.388;17.798;2022-12-05T07:36:29;-0.80;99.90
12688;DHT22;6408;59.388;17.798;2022-12-05T07:39:13;-0.80;99.90
12688;DHT22;6408;59.388;17.798;2022-12-05T07:41:46;-0.80;99.90
12688;DHT22;6408;59.388;17.798;2022-12-05T07:44:25;-0.80;99.90
12688;DHT22;6408;59.388;17.798;2022-12-05T07:46:54;-0.70;99.90
12688;DHT22;6408;59.388;17.798;2022-12-05T07:49:21;-0.80;99.90
12688;DHT22;6408;59.388;17.798;2022-12-05T07:51:53;-0.80;99.90
12688;DHT22;6408;59.388;17.798;2022-12-05T07:54:23;-0.80;99.90
12688;DHT22;6408;59.388;17.798;2022-12-05T07:56:58;-0.80;99.90
12688;DHT22;6408;59.388;17.798;2022-12-05T07:59:35;-0.80;99.90
12688;DHT22;6408;59.388;17.798;2022-12-05T08:02:03;-0.80;99.90
12688;DHT22;6408;59.388;17.798;2022-12-05T08:04:37;-0.70;99.90
12688;DHT22;6408;59.388;17.798;2022-12-05T08:07:04;-0.80;99.90
12688;DHT22;6408;59.388;17.798;2022-12-05T08:09:33;-0.80;99.90
12688;DHT22;6408;59.388;17.798;2022-12-05T08:12:03;-0.80;99.90
12688;DHT22;6408;59.388;17.798;2022-12-05T08:14:34;-0.70;99.90
12688;DHT22;6408;59.388;17.798;2022-12-05T08:17:02;-0.80;99.90
12688;DHT22;6408;59.388;17.798;2022-12-05T08:19:33;-0.80;99.90
12688;DHT22;6408;59.388;17.798;2022-12-05T08:22:01;-0.80;99.90
12688;DHT22;6408;59.388;17.798;2022-12-05T08:24:29;-0.80;99.90
12688;DHT22;6408;59.388;17.798;2022-12-05T08:26:57;-0.80;99.90
12688;DHT22;6408;59.388;17.798;2022-12-05T08:29:27;-0.80;99.90
12688;DHT22;6408;59.388;17.798;2022-12-05T08:32:04;-0.80;99.90
12688;DHT22;6408;59.388;17.798;2022-12-05T08:34:38;-0.80;99.90
12688;DHT22;6408;59.388;17.798;2022-12-05T08:37:05;-0.80;99.90
12688;DHT22;6408;59.388;17.798;2022-12-05T08:39:36;-0.80;99.90
12688;DHT22;6408;59.388;17.798;2022-12-05T08:42:07;-0.80;99.90
12688;DHT22;6408;59.388;17.798;2022-12-05T08:44:43;-0.80;99.90
12688;DHT22;6408;59.388;17.798;2022-12-05T08:47:59;-0.80;99.90
12688;DHT22;6408;59.388;17.798;2022-12-05T08:50:38;-0.70;99.90
12688;DHT22;6408;59.388;17.798;2022-12-05T08:53:13;-0.60;99.90
12688;DHT22;6408;59.388;17.798;2022-12-05T08:55:41;-0.70;99.90
12688;DHT22;6408;59.388;17.798;2022-12-05T08:58:10;-0.70;99.90
12688;DHT22;6408;59.388;17.798;2022-12-05T09:00:38;-0.70;99.90
12688;DHT22;6408;59.388;17.798;2022-12-05T09:03:26;-0.70;99.90
12688;DHT22;6408;59.388;17.798;2022-12-05T09:05:53;-0.70;99.90
12688;DHT22;6408;59.388;17.798;2022-12-05T09:08:21;-0.60;99.90
12688;DHT22;6408;59.388;17.798;2022-12-05T09:10:49;-0.60;99.90
12688;DHT22;6408;59.388;17.798;2022-12-05T09:13:17;-0.60;99.90
12688;DHT22;6408;59.388;17.798;2022-12-05T09:15:45;-0.60;99.90
12688;DHT22;6408;59.388;17.798;2022-12-05T09:18:18;-0.50;99.90
12688;DHT22;6408;59.388;17.798;2022-12-05T09:20:48;-0.50;99.90
12688;DHT22;6408;59.388;17.798;2022-12-05T09:23:28;-0.50;99.90
12688;DHT22;6408;59.388;17.798;2022-12-05T09:26:20;-0.40;99.90
12688;DHT22;6408;59.388;17.798;2022-12-05T09:28:53;-0.30;99.90
12688;DHT22;6408;59.388;17.798;2022-12-05T09:31:24;-0.40;99.90
12688;DHT22;6408;59.388;17.798;2022-12-05T09:33:54;-0.40;99.90
12688;DHT22;6408;59.388;17.798;2022-12-05T09:36:26;-0.30;99.90
12688;DHT22;6408;59.388;17.798;2022-12-05T09:39:05;-0.30;99.90
12688;DHT22;6408;59.388;17.798;2022-12-05T09:45:17;-0.30;99.90
12688;DHT22;6408;59.388;17.798;2022-12-05T09:48:00;-0.20;99.90
12688;DHT22;6408;59.388;17.798;2022-12-05T09:50:39;-0.20;99.90
12688;DHT22;6408;59.388;17.798;2022-12-05T09:53:25;-0.30;99.90
12688;DHT22;6408;59.388;17.798;2022-12-05T09:56:02;-0.30;99.90
12688;DHT22;6408;59.388;17.798;2022-12-05T09:58:40;-0.20;99.90
12688;DHT22;6408;59.388;17.798;2022-12-05T10:01:22;-0.30;99.90
12688;DHT22;6408;59.388;17.798;2022-12-05T10:04:05;-0.20;99.90
12688;DHT22;6408;59.388;17.798;2022-12-05T10:06:38;-0.20;99.90
12688;DHT22;6408;59.388;17.798;2022-12-05T10:09:19;-0.20;99.90
12688;DHT22;6408;59.388;17.798;2022-12-05T10:12:10;-0.30;99.90
12688;DHT22;6408;59.388;17.798;2022-12-05T10:15:07;-0.30;99.90
12688;DHT22;6408;59.388;17.798;2022-12-05T10:17:45;-0.30;99.90
12688;DHT22;6408;59.388;17.798;2022-12-05T10:20:16;-0.20;99.90
12688;DHT22;6408;59.388;17.798;2022-12-05T10:22:49;-0.10;99.90
12688;DHT22;6408;59.388;17.798;2022-12-05T10:25:36;-0.30;99.90
12688;DHT22;6408;59.388;17.798;2022-12-05T10:28:13;-0.20;99.90
12688;DHT22;6408;59.388;17.798;2022-12-05T10:30:55;-0.30;99.90
12688;DHT22;6408;59.388;17.798;2022-12-05T10:33:32;-0.30;99.90
12688;DHT22;6408;59.388;17.798;2022-12-05T10:36:05;-0.30;99.90
12688;DHT22;6408;59.388;17.798;2022-12-05T10:38:38;-0.30;99.90
12688;DHT22;6408;59.388;17.798;2022-12-05T10:41:11;-0.30;99.90
12688;DHT22;6408;59.388;17.798;2022-12-05T10:43:48;-0.30;99.90
12688;DHT22;6408;59.388;17.798;2022-12-05T10:46:22;-0.30;99.90
12688;DHT22;6408;59.388;17.798;2022-12-05T10:48:49;-0.20;99.90
12688;DHT22;6408;59.388;17.798;2022-12-05T10:51:19;-0.10;99.90
12688;DHT22;6408;59.388;17.798;2022-12-05T10:53:50;-0.20;99.90
12688;DHT22;6408;59.388;17.798;2022-12-05T10:56:41;-0.10;99.90
12688;DHT22;6408;59.388;17.798;2022-12-05T10:59:42;-0.10;99.90
12688;DHT22;6408;59.388;17.798;2022-12-05T11:02:23;-0.10;99.90
12688;DHT22;6408;59.388;17.798;2022-12-05T11:04:55;0.00;99.90
12688;DHT22;6408;59.388;17.798;2022-12-05T11:07:28;-0.10;99.90
12688;DHT22;6408;59.388;17.798;2022-12-05T11:09:58;-0.10;99.90
12688;DHT22;6408;59.388;17.798;2022-12-05T11:12:29;0.00;99.90
12688;DHT22;6408;59.388;17.798;2022-12-05T11:15:20;-0.10;99.90
12688;DHT22;6408;59.388;17.798;2022-12-05T11:18:18;-0.10;99.90
12688;DHT22;6408;59.388;17.798;2022-12-05T11:20:56;-0.20;99.90
12688;DHT22;6408;59.388;17.798;2022-12-05T11:23:32;-0.10;99.90
12688;DHT22;6408;59.388;17.798;2022-12-05T11:26:17;0.00;99.90
12688;DHT22;6408;59.388;17.798;2022-12-05T11:29:20;-0.10;99.90
12688;DHT22;6408;59.388;17.798;2022-12-05T11:32:17;-0.10;99.90
12688;DHT22;6408;59.388;17.798;2022-12-05T11:38:23;-0.10;99.90
12688;DHT22;6408;59.388;17.798;2022-12-05T11:41:31;0.00;99.90
12688;DHT22;6408;59.388;17.798;2022-12-05T11:50:39;-0.10;99.90
12688;DHT22;6408;59.388;17.798;2022-12-05T11:53:59;0.10;99.90
12688;DHT22;6408;59.388;17.798;2022-12-05T11:56:49;0.00;99.90
12688;DHT22;6408;59.388;17.798;2022-12-05T12:02:31;-0.10;99.90
12688;DHT22;6408;59.388;17.798;2022-12-05T12:05:17;-0.10;99.90
12688;DHT22;6408;59.388;17.798;2022-12-05T12:08:11;-0.20;99.90
12688;DHT22;6408;59.388;17.798;2022-12-05T12:14:09;-0.20;99.90
12688;DHT22;6408;59.388;17.798;2022-12-05T12:16:57;-0.10;99.90
12688;DHT22;6408;59.388;17.798;2022-12-05T12:19:53;-0.10;99.90
12688;DHT22;6408;59.388;17.798;2022-12-05T12:25:27;0.10;99.90
12688;DHT22;6408;59.388;17.798;2022-12-05T12:28:20;0.00;99.90
12688;DHT22;6408;59.388;17.798;2022-12-05T12:31:30;0.00;99.90
12688;DHT22;6408;59.388;17.798;2022-12-05T12:34:32;0.00;99.90
12688;DHT22;6408;59.388;17.798;2022-12-05T12:37:21;0.10;99.90
12688;DHT22;6408;59.388;17.798;2022-12-05T12:39:52;0.10;99.90
12688;DHT22;6408;59.388;17.798;2022-12-05T12:42:46;0.10;99.90
12688;DHT22;6408;59.388;17.798;2022-12-05T12:45:43;0.00;99.90
12688;DHT22;6408;59.388;17.798;2022-12-05T12:48:53;0.00;99.90
12688;DHT22;6408;59.388;17.798;2022-12-05T12:51:31;0.00;99.90
12688;DHT22;6408;59.388;17.798;2022-12-05T12:54:19;-0.10;99.90
12688;DHT22;6408;59.388;17.798;2022-12-05T12:57:07;0.00;99.90
12688;DHT22;6408;59.388;17.798;2022-12-05T13:00:00;0.10;99.90
12688;DHT22;6408;59.388;17.798;2022-12-05T13:02:34;0.10;99.90
12688;DHT22;6408;59.388;17.798;2022-12-05T13:05:25;0.10;99.90
12688;DHT22;6408;59.388;17.798;2022-12-05T13:08:10;0.10;99.90
12688;DHT22;6408;59.388;17.798;2022-12-05T13:10:45;0.10;99.90
12688;DHT22;6408;59.388;17.798;2022-12-05T13:13:16;0.10;99.90
12688;DHT22;6408;59.388;17.798;2022-12-05T13:15:51;0.10;99.90
12688;DHT22;6408;59.388;17.798;2022-12-05T13:18:21;0.00;99.90
12688;DHT22;6408;59.388;17.798;2022-12-05T13:20:56;0.00;99.90
12688;DHT22;6408;59.388;17.798;2022-12-05T13:23:32;-0.10;99.90
12688;DHT22;6408;59.388;17.798;2022-12-05T13:26:07;-0.20;99.90
12688;DHT22;6408;59.388;17.798;2022-12-05T13:28:46;-0.20;99.90
12688;DHT22;6408;59.388;17.798;2022-12-05T13:31:31;-0.20;99.90
12688;DHT22;6408;59.388;17.798;2022-12-05T13:34:15;-0.20;99.90
12688;DHT22;6408;59.388;17.798;2022-12-05T13:37:22;-0.20;99.90
12688;DHT22;6408;59.388;17.798;2022-12-05T13:40:31;-0.20;99.90
12688;DHT22;6408;59.388;17.798;2022-12-05T13:43:19;-0.20;99.90
12688;DHT22;6408;59.388;17.798;2022-12-05T13:46:03;-0.10;99.90
12688;DHT22;6408;59.388;17.798;2022-12-05T13:48:35;-0.10;99.90
12688;DHT22;6408;59.388;17.798;2022-12-05T13:51:09;0.00;99.90
12688;DHT22;6408;59.388;17.798;2022-12-05T13:53:47;-0.10;99.90
12688;DHT22;6408;59.388;17.798;2022-12-05T13:56:29;-0.10;99.90
12688;DHT22;6408;59.388;17.798;2022-12-05T14:02:50;0.00;99.90
12688;DHT22;6408;59.388;17.798;2022-12-05T14:05:40;-0.10;99.90
12688;DHT22;6408;59.388;17.798;2022-12-05T14:11:18;-0.10;99.90
12688;DHT22;6408;59.388;17.798;2022-12-05T14:13:51;-0.20;99.90
12688;DHT22;6408;59.388;17.798;2022-12-05T14:16:49;-0.10;99.90
12688;DHT22;6408;59.388;17.798;2022-12-05T14:19:46;0.00;99.90
12688;DHT22;6408;59.388;17.798;2022-12-05T14:22:45;-0.10;99.90
12688;DHT22;6408;59.388;17.798;2022-12-05T14:25:36;-0.10;99.90
12688;DHT22;6408;59.388;17.798;2022-12-05T14:28:18;0.10;99.90
12688;DHT22;6408;59.388;17.798;2022-12-05T14:31:19;0.00;99.90
12688;DHT22;6408;59.388;17.798;2022-12-05T14:34:16;0.00;99.90
12688;DHT22;6408;59.388;17.798;2022-12-05T14:37:06;-0.10;99.90
12688;DHT22;6408;59.388;17.798;2022-12-05T14:39:46;0.00;99.90
12688;DHT22;6408;59.388;17.798;2022-12-05T14:42:24;0.00;99.90
12688;DHT22;6408;59.388;17.798;2022-12-05T14:45:01;0.00;99.90
12688;DHT22;6408;59.388;17.798;2022-12-05T14:47:36;0.00;99.90
12688;DHT22;6408;59.388;17.798;2022-12-05T14:50:31;0.00;99.90
12688;DHT22;6408;59.388;17.798;2022-12-05T14:53:30;0.00;99.90
12688;DHT22;6408;59.388;17.798;2022-12-05T14:56:14;-0.10;99.90
12688;DHT22;6408;59.388;17.798;2022-12-05T14:59:05;-0.10;99.90
12688;DHT22;6408;59.388;17.798;2022-12-05T15:01:46;-0.10;99.90
12688;DHT22;6408;59.388;17.798;2022-12-05T15:04:34;-0.10;99.90
12688;DHT22;6408;59.388;17.798;2022-12-05T15:07:08;0.00;99.90
12688;DHT22;6408;59.388;17.798;2022-12-05T15:09:56;0.10;99.90
12688;DHT22;6408;59.388;17.798;2022-12-05T15:12:36;0.00;99.90
12688;DHT22;6408;59.388;17.798;2022-12-05T15:15:23;0.00;99.90
12688;DHT22;6408;59.388;17.798;2022-12-05T15:17:58;0.00;99.90
12688;DHT22;6408;59.388;17.798;2022-12-05T15:20:36;0.00;99.90
12688;DHT22;6408;59.388;17.798;2022-12-05T15:26:21;0.10;99.90
12688;DHT22;6408;59.388;17.798;2022-12-05T15:29:10;0.00;99.90
12688;DHT22;6408;59.388;17.798;2022-12-05T15:31:45;0.10;99.90
12688;DHT22;6408;59.388;17.798;2022-12-05T15:34:22;0.10;99.90
12688;DHT22;6408;59.388;17.798;2022-12-05T15:36:56;0.00;99.90
12688;DHT22;6408;59.388;17.798;2022-12-05T15:39:26;0.00;99.90
12688;DHT22;6408;59.388;17.798;2022-12-05T15:41:55;0.00;99.90
12688;DHT22;6408;59.388;17.798;2022-12-05T15:44:27;0.10;99.90
12688;DHT22;6408;59.388;17.798;2022-12-05T15:47:17;0.10;99.90
12688;DHT22;6408;59.388;17.798;2022-12-05T15:50:00;0.10;99.90
12688;DHT22;6408;59.388;17.798;2022-12-05T15:52:47;0.00;99.90
12688;DHT22;6408;59.388;17.798;2022-12-05T15:55:25;0.10;99.90
12688;DHT22;6408;59.388;17.798;2022-12-05T15:58:01;0.00;99.90
12688;DHT22;6408;59.388;17.798;2022-12-05T16:00:48;0.00;99.90
12688;DHT22;6408;59.388;17.798;2022-12-05T16:03:39;0.00;99.90
12688;DHT22;6408;59.388;17.798;2022-12-05T16:06:24;0.00;99.90
12688;DHT22;6408;59.388;17.798;2022-12-05T16:09:05;-0.10;99.90
12688;DHT22;6408;59.388;17.798;2022-12-05T16:12:03;-0.10;99.90
12688;DHT22;6408;59.388;17.798;2022-12-05T16:15:06;-0.10;99.90
12688;DHT22;6408;59.388;17.798;2022-12-05T16:17:53;-0.10;99.90
12688;DHT22;6408;59.388;17.798;2022-12-05T16:20:27;-0.10;99.90
12688;DHT22;6408;59.388;17.798;2022-12-05T16:22:57;-0.10;99.90
12688;DHT22;6408;59.388;17.798;2022-12-05T16:25:39;-0.10;99.90
12688;DHT22;6408;59.388;17.798;2022-12-05T16:28:20;-0.10;99.90
12688;DHT22;6408;59.388;17.798;2022-12-05T16:31:01;-0.10;99.90
12688;DHT22;6408;59.388;17.798;2022-12-05T16:33:31;-0.10;99.90
12688;DHT22;6408;59.388;17.798;2022-12-05T16:36:10;-0.10;99.90
12688;DHT22;6408;59.388;17.798;2022-12-05T16:38:38;-0.10;99.90
12688;DHT22;6408;59.388;17.798;2022-12-05T16:41:13;-0.10;99.90
12688;DHT22;6408;59.388;17.798;2022-12-05T16:43:47;-0.10;99.90
12688;DHT22;6408;59.388;17.798;2022-12-05T16:46:40;-0.10;99.90
12688;DHT22;6408;59.388;17.798;2022-12-05T16:49:20;-0.10;99.90
12688;DHT22;6408;59.388;17.798;2022-12-05T16:51:59;-0.10;99.90
12688;DHT22;6408;59.388;17.798;2022-12-05T16:54:40;-0.10;99.90
12688;DHT22;6408;59.388;17.798;2022-12-05T16:57:12;-0.10;99.90
12688;DHT22;6408;59.388;17.798;2022-12-05T16:59:42;-0.10;99.90
12688;DHT22;6408;59.388;17.798;2022-12-05T17:02:16;-0.10;99.90
12688;DHT22;6408;59.388;17.798;2022-12-05T17:04:45;-0.10;99.90
12688;DHT22;6408;59.388;17.798;2022-12-05T17:07:26;-0.10;99.90
12688;DHT22;6408;59.388;17.798;2022-12-05T17:10:13;-0.10;99.90
12688;DHT22;6408;59.388;17.798;2022-12-05T17:13:08;0.00;99.90
12688;DHT22;6408;59.388;17.798;2022-12-05T17:16:08;0.00;99.90
12688;DHT22;6408;59.388;17.798;2022-12-05T17:18:54;0.00;99.90
12688;DHT22;6408;59.388;17.798;2022-12-05T17:21:46;0.00;99.90